createdAt,value
2023-05-02T00:01:18.000Z,3.83
2023-05-02T00:03:45.359Z,3.47
2023-05-02T00:06:12.674Z,3.33
2023-05-02T00:08:40.311Z,3.00
2023-05-02T00:11:07.427Z,2.15
2023-05-02T00:13:34.559Z,2.55
2023-05-02T00:16:01.987Z,3.15
2023-05-02T00:18:29.094Z,2.45
2023-05-02T00:20:56.997Z,2.72
2023-05-02T00:23:24.189Z,2.83
2023-05-02T00:25:51.397Z,1.98
2023-05-02T00:28:18.701Z,1.80
2023-05-02T00:30:46.628Z,2.72
2023-05-02T00:33:15.093Z,2.60
2023-05-02T00:35:42.405Z,2.30
2023-05-02T00:38:09.571Z,1.70
2023-05-02T00:40:46.567Z,1.90
2023-05-02T00:43:13.973Z,2.53
2023-05-02T00:45:43.406Z,2.60
2023-05-02T00:48:11.063Z,2.15
2023-05-02T00:50:38.824Z,2.20
2023-05-02T00:53:06.679Z,2.33
2023-05-02T00:55:34.190Z,2.17
2023-05-02T00:58:02.589Z,2.30
2023-05-02T01:00:48.552Z,2.83
2023-05-02T01:03:25.726Z,2.75
2023-05-02T01:06:16.830Z,2.42
2023-05-02T01:08:56.618Z,2.70
2023-05-02T01:11:29.852Z,2.20
2023-05-02T01:14:00.026Z,2.05
2023-05-02T01:16:27.374Z,2.47
2023-05-02T01:18:54.969Z,2.05
2023-05-02T01:21:22.513Z,2.22
2023-05-02T01:24:03.511Z,2.30
2023-05-02T01:26:34.345Z,2.40
2023-05-02T01:29:02.795Z,2.25
2023-05-02T01:31:31.993Z,2.10
2023-05-02T01:34:00.932Z,1.90
2023-05-02T01:36:30.442Z,2.00
2023-05-02T01:38:57.996Z,2.53
2023-05-02T01:41:29.695Z,2.25
2023-05-02T01:43:58.873Z,2.42
2023-05-02T01:46:28.307Z,2.00
2023-05-02T01:48:57.067Z,1.83
2023-05-02T01:51:26.986Z,1.92
2023-05-02T01:53:54.943Z,1.90
2023-05-02T01:56:22.162Z,2.03
2023-05-02T01:58:49.688Z,1.67
2023-05-02T02:01:17.259Z,1.67
2023-05-02T02:03:44.940Z,1.77
2023-05-02T02:06:12.642Z,1.80
2023-05-02T02:08:39.898Z,1.50
2023-05-02T02:11:10.468Z,2.20
2023-05-02T02:13:45.005Z,1.80
2023-05-02T02:16:13.464Z,2.17
2023-05-02T02:18:40.656Z,1.92
2023-05-02T02:21:08.773Z,1.55
2023-05-02T02:23:37.562Z,1.60
2023-05-02T02:26:05.922Z,2.00
2023-05-02T02:28:34.846Z,2.03
2023-05-02T02:31:02.253Z,2.17
2023-05-02T02:33:31.131Z,2.00
2023-05-02T02:36:03.418Z,1.77
2023-05-02T02:38:36.051Z,1.70
2023-05-02T02:41:29.554Z,1.73
2023-05-02T02:44:06.774Z,2.17
2023-05-02T02:47:02.544Z,1.55
2023-05-02T02:49:31.421Z,2.17
2023-05-02T02:52:06.305Z,2.20
2023-05-02T02:54:40.316Z,2.85
2023-05-02T02:57:16.086Z,2.70
2023-05-02T02:59:47.926Z,2.55
2023-05-02T03:02:18.077Z,2.15
2023-05-02T03:04:46.604Z,2.15
2023-05-02T03:07:14.087Z,1.98
2023-05-02T03:09:42.204Z,2.13
2023-05-02T03:12:09.341Z,1.80
2023-05-02T03:14:37.057Z,2.08
2023-05-02T03:17:04.898Z,2.30
2023-05-02T03:19:32.050Z,2.20
2023-05-02T03:21:59.166Z,1.90
2023-05-02T03:24:27.744Z,2.00
2023-05-02T03:26:55.865Z,2.35
2023-05-02T03:29:23.227Z,2.28
2023-05-02T03:31:50.856Z,2.10
2023-05-02T03:34:19.552Z,2.75
2023-05-02T03:36:46.646Z,3.08
2023-05-02T03:39:13.848Z,2.83
2023-05-02T03:41:43.338Z,3.00
2023-05-02T03:44:10.520Z,2.35
2023-05-02T03:46:37.760Z,2.38
2023-05-02T03:49:04.874Z,2.47
2023-05-02T03:51:33.781Z,2.60
2023-05-02T03:54:02.735Z,2.60
2023-05-02T03:56:29.914Z,2.70
2023-05-02T03:58:57.048Z,3.10
2023-05-02T04:01:24.436Z,3.30
2023-05-02T04:03:53.089Z,2.97
2023-05-02T04:06:20.321Z,2.90
2023-05-02T04:08:47.553Z,3.08
2023-05-02T04:11:16.023Z,3.35
2023-05-02T04:13:43.114Z,3.45
2023-05-02T04:16:10.411Z,3.03
2023-05-02T04:18:37.637Z,3.70
2023-05-02T04:21:04.898Z,3.00
2023-05-02T04:23:32.073Z,3.35
2023-05-02T04:25:59.188Z,3.00
2023-05-02T04:28:26.322Z,3.20
2023-05-02T04:30:53.731Z,3.03
2023-05-02T04:33:20.834Z,3.05
2023-05-02T04:35:47.926Z,2.97
2023-05-02T04:38:15.211Z,2.88
2023-05-02T04:40:42.636Z,2.90
2023-05-02T04:43:10.082Z,3.05
2023-05-02T04:45:37.416Z,3.35
2023-05-02T04:48:04.934Z,3.70
2023-05-02T04:50:32.549Z,3.25
2023-05-02T04:52:59.824Z,3.88
2023-05-02T04:55:27.025Z,4.15
2023-05-02T04:57:54.127Z,4.07
2023-05-02T05:00:21.958Z,3.97
2023-05-02T05:02:49.182Z,4.47
2023-05-02T05:05:16.449Z,4.28
2023-05-02T05:07:43.597Z,4.85
2023-05-02T05:10:11.489Z,4.60
2023-05-02T05:12:38.699Z,4.40
2023-05-02T05:15:07.163Z,4.72
2023-05-02T05:17:34.603Z,4.93
2023-05-02T05:20:02.088Z,4.85
2023-05-02T05:22:29.457Z,4.50
2023-05-02T05:24:56.609Z,4.22
2023-05-02T05:27:23.847Z,4.10
2023-05-02T05:29:51.002Z,3.70
2023-05-02T05:32:18.323Z,4.93
2023-05-02T05:34:45.419Z,3.92
2023-05-02T05:37:12.644Z,3.88
2023-05-02T05:39:39.725Z,3.33
2023-05-02T05:42:09.739Z,2.72
2023-05-02T05:44:37.188Z,3.55
2023-05-02T05:47:04.382Z,4.15
2023-05-02T05:49:31.557Z,3.30
2023-05-02T05:51:59.027Z,3.13
2023-05-02T05:54:26.358Z,3.00
2023-05-02T05:56:53.469Z,2.67
2023-05-02T05:59:20.649Z,2.95
2023-05-02T06:01:47.730Z,2.42
2023-05-02T06:04:14.887Z,2.75
2023-05-02T06:06:42.344Z,2.97
2023-05-02T06:09:09.430Z,2.60
2023-05-02T06:11:38.070Z,2.58
2023-05-02T06:14:05.336Z,2.72
2023-05-02T06:16:32.462Z,2.58
2023-05-02T06:18:59.257Z,2.80
2023-05-02T06:21:26.390Z,2.75
2023-05-02T06:23:53.659Z,2.58
2023-05-02T06:26:21.666Z,2.80
2023-05-02T06:28:48.800Z,2.70
2023-05-02T06:31:16.489Z,2.63
2023-05-02T06:33:43.590Z,3.00
2023-05-02T06:36:11.025Z,3.03
2023-05-02T06:38:38.135Z,2.90
2023-05-02T06:41:05.346Z,2.60
2023-05-02T06:43:33.002Z,2.85
2023-05-02T06:46:02.155Z,3.15
2023-05-02T06:48:29.236Z,2.90
2023-05-02T06:50:56.431Z,2.90
2023-05-02T06:53:23.508Z,2.97
2023-05-02T06:55:51.073Z,2.97
2023-05-02T06:58:18.313Z,2.70
2023-05-02T07:00:45.695Z,2.67
2023-05-02T07:03:12.926Z,2.70
2023-05-02T07:05:40.190Z,2.90
2023-05-02T07:08:07.310Z,2.90
2023-05-02T07:10:34.020Z,3.28
2023-05-02T07:13:00.755Z,2.80
2023-05-02T07:15:27.866Z,2.58
2023-05-02T07:17:56.004Z,2.80
2023-05-02T07:20:23.244Z,2.70
2023-05-02T07:22:50.448Z,3.25
2023-05-02T07:25:17.149Z,2.38
2023-05-02T07:27:43.960Z,3.38
2023-05-02T07:30:11.279Z,3.25
2023-05-02T07:32:38.038Z,2.67
2023-05-02T07:35:05.626Z,3.67
2023-05-02T07:37:36.381Z,2.95
2023-05-02T07:40:04.115Z,2.67
2023-05-02T07:42:31.974Z,2.65
2023-05-02T07:44:59.889Z,2.72
2023-05-02T07:47:26.977Z,2.55
2023-05-02T07:49:55.368Z,2.72
2023-05-02T07:52:22.582Z,2.53
2023-05-02T07:54:49.884Z,2.78
2023-05-02T07:57:16.813Z,2.38
2023-05-02T07:59:43.907Z,2.28
2023-05-02T08:02:13.148Z,2.40
2023-05-02T08:04:41.188Z,3.00
2023-05-02T08:07:08.455Z,3.28
2023-05-02T08:09:35.613Z,3.10
2023-05-02T08:12:03.380Z,3.13
2023-05-02T08:14:30.664Z,3.15
2023-05-02T08:16:57.998Z,3.75
2023-05-02T08:19:25.238Z,2.72
2023-05-02T08:21:52.358Z,3.03
2023-05-02T08:24:19.439Z,2.63
2023-05-02T08:26:46.648Z,2.78
2023-05-02T08:29:13.727Z,2.60
2023-05-02T08:31:41.189Z,2.75
2023-05-02T08:34:08.430Z,3.58
2023-05-02T08:36:37.239Z,3.20
2023-05-02T08:39:04.467Z,2.78
2023-05-02T08:41:31.805Z,2.47
2023-05-02T08:44:00.012Z,2.25
2023-05-02T08:46:27.694Z,2.28
2023-05-02T08:48:55.126Z,2.20
2023-05-02T08:51:23.932Z,2.15
2023-05-02T08:53:51.207Z,2.10
2023-05-02T08:56:18.412Z,1.98
2023-05-02T08:58:45.728Z,2.22
2023-05-02T09:01:16.755Z,2.00
2023-05-02T09:03:44.999Z,2.20
2023-05-02T09:06:13.273Z,2.72
2023-05-02T09:08:41.039Z,1.85
2023-05-02T09:11:09.390Z,2.33
2023-05-02T09:13:43.511Z,2.00
2023-05-02T09:16:10.728Z,2.00
2023-05-02T09:18:37.918Z,2.03
2023-05-02T09:21:08.760Z,1.90
2023-05-02T09:23:43.099Z,1.83
2023-05-02T09:26:23.420Z,2.42
2023-05-02T09:28:51.622Z,1.85
2023-05-02T09:33:53.198Z,3.08
2023-05-02T09:36:20.813Z,2.20
2023-05-02T09:38:49.190Z,1.98
2023-05-02T09:41:18.047Z,1.90
2023-05-02T09:43:45.171Z,1.70
2023-05-02T09:46:12.559Z,1.83
2023-05-02T09:48:58.683Z,1.60
2023-05-02T09:51:26.311Z,1.80
2023-05-02T09:53:53.656Z,1.50
2023-05-02T09:56:21.897Z,2.65
2023-05-02T09:58:50.062Z,1.58
2023-05-02T10:01:18.359Z,1.77
2023-05-02T10:03:48.948Z,1.90
2023-05-02T10:06:17.742Z,1.38
2023-05-02T10:08:47.526Z,2.28
2023-05-02T10:11:15.355Z,1.83
2023-05-02T10:13:44.183Z,2.00
2023-05-02T10:16:13.123Z,1.90
2023-05-02T10:18:46.953Z,1.95
2023-05-02T10:21:17.319Z,1.80
2023-05-02T10:23:44.506Z,2.00
2023-05-02T10:26:14.268Z,2.08
2023-05-02T10:28:42.469Z,1.85
2023-05-02T10:31:13.620Z,2.25
2023-05-02T10:33:41.125Z,2.13
2023-05-02T10:36:09.825Z,2.15
2023-05-02T10:38:38.176Z,1.67
2023-05-02T10:41:14.496Z,1.98
2023-05-02T10:43:42.789Z,2.20
2023-05-02T10:46:28.717Z,1.95
2023-05-02T10:49:06.422Z,2.53
2023-05-02T10:51:34.167Z,2.10
2023-05-02T10:54:20.079Z,1.70
2023-05-02T10:57:03.953Z,1.95
2023-05-02T10:59:31.795Z,2.10
2023-05-02T11:01:59.057Z,2.03
2023-05-02T11:04:27.803Z,2.33
2023-05-02T11:07:00.944Z,2.20
2023-05-02T11:09:28.017Z,1.48
2023-05-02T11:11:58.027Z,2.20
2023-05-02T11:14:33.848Z,1.33
2023-05-02T11:17:06.811Z,2.00
2023-05-02T11:19:36.966Z,1.60
2023-05-02T11:22:19.422Z,1.90
2023-05-02T11:24:47.871Z,1.67
2023-05-02T11:27:30.528Z,1.70
2023-05-02T11:29:58.627Z,1.70
2023-05-02T11:32:27.415Z,1.80
2023-05-02T11:34:56.076Z,1.80
2023-05-02T11:37:23.183Z,1.95
2023-05-02T11:39:51.542Z,2.25
2023-05-02T11:42:31.148Z,1.63
2023-05-02T11:44:59.346Z,1.85
2023-05-02T11:47:30.080Z,1.88
2023-05-02T11:49:59.899Z,1.83
2023-05-02T11:52:27.294Z,1.75
2023-05-02T11:54:55.922Z,2.10
2023-05-02T11:57:23.437Z,2.25
2023-05-02T11:59:53.970Z,1.95
2023-05-02T12:02:22.384Z,1.95
2023-05-02T12:04:49.780Z,2.00
2023-05-02T12:07:16.979Z,2.10
2023-05-02T12:09:54.392Z,2.00
2023-05-02T12:12:22.464Z,2.03
2023-05-02T12:14:49.630Z,2.00
2023-05-02T12:17:17.193Z,2.00
2023-05-02T12:19:44.587Z,2.00
2023-05-02T12:22:13.320Z,2.08
2023-05-02T12:24:41.274Z,2.33
2023-05-02T12:27:11.567Z,2.25
2023-05-02T12:29:45.460Z,1.60
2023-05-02T12:32:13.318Z,2.20
2023-05-02T12:34:41.324Z,2.00
2023-05-02T12:37:09.347Z,2.05
2023-05-02T12:39:37.528Z,1.92
2023-05-02T12:42:15.675Z,1.95
2023-05-02T12:44:44.110Z,1.63
2023-05-02T12:47:12.437Z,1.70
2023-05-02T12:49:58.256Z,1.75
2023-05-02T12:52:44.294Z,1.50
2023-05-02T12:55:18.334Z,1.90
2023-05-02T12:57:45.588Z,1.95
2023-05-02T13:00:13.244Z,2.00
2023-05-02T13:02:40.470Z,2.25
2023-05-02T13:05:17.218Z,2.08
2023-05-02T13:07:44.605Z,1.77
2023-05-02T13:10:13.452Z,2.30
2023-05-02T13:12:41.414Z,1.83
2023-05-02T13:15:09.091Z,1.85
2023-05-02T13:17:36.346Z,1.70
2023-05-02T13:20:03.964Z,1.77
2023-05-02T13:22:31.526Z,1.70
2023-05-02T13:24:58.639Z,1.73
2023-05-02T13:27:37.227Z,1.52
2023-05-02T13:30:08.493Z,1.50
2023-05-02T13:32:36.475Z,1.90
2023-05-02T13:35:04.090Z,1.33
2023-05-02T13:37:31.402Z,1.65
2023-05-02T13:39:58.811Z,1.80
2023-05-02T13:42:26.030Z,1.20
2023-05-02T13:44:53.192Z,1.40
2023-05-02T13:47:21.545Z,1.50
2023-05-02T13:49:48.748Z,1.63
2023-05-02T13:52:16.022Z,2.10
2023-05-02T13:54:43.095Z,1.60
2023-05-02T13:57:10.232Z,1.75
2023-05-02T13:59:37.368Z,1.98
2023-05-02T14:02:04.549Z,1.77
2023-05-02T14:04:31.655Z,2.03
2023-05-02T14:06:58.838Z,2.00
2023-05-02T14:09:26.255Z,1.85
2023-05-02T14:11:53.419Z,1.67
2023-05-02T14:14:20.674Z,1.77
2023-05-02T14:16:49.625Z,2.42
2023-05-02T14:19:18.028Z,1.70
2023-05-02T14:21:45.257Z,1.73
2023-05-02T14:24:12.927Z,1.63
2023-05-02T14:26:40.011Z,8.00
2023-05-02T14:29:07.456Z,4.85
2023-05-02T14:31:34.546Z,1.45
2023-05-02T14:34:01.735Z,1.50
2023-05-02T14:36:28.858Z,1.20
2023-05-02T14:38:55.972Z,1.60
2023-05-02T14:41:24.042Z,1.95
2023-05-02T14:43:53.295Z,1.60
2023-05-02T14:46:20.437Z,1.52
2023-05-02T14:48:47.600Z,1.55
2023-05-02T14:51:15.120Z,1.58
2023-05-02T14:53:42.750Z,1.42
2023-05-02T14:56:13.694Z,1.77
2023-05-02T15:01:07.978Z,1.80
2023-05-02T15:03:37.716Z,1.50
2023-05-02T15:06:13.369Z,1.30
2023-05-02T15:08:40.612Z,1.55
2023-05-02T15:11:07.832Z,1.77
2023-05-02T15:13:34.989Z,1.55
2023-05-02T15:16:02.182Z,2.15
2023-05-02T15:18:29.517Z,1.40
2023-05-02T15:20:56.777Z,1.40
2023-05-02T15:23:23.871Z,1.80
2023-05-02T15:25:51.152Z,1.52
2023-05-02T15:28:18.290Z,1.50
2023-05-02T15:30:46.062Z,1.42
2023-05-02T15:33:13.441Z,1.30
2023-05-02T15:35:40.702Z,1.50
2023-05-02T15:38:09.060Z,1.50
2023-05-02T15:40:36.119Z,1.70
2023-05-02T15:43:03.259Z,1.55
2023-05-02T15:45:30.409Z,1.30
2023-05-02T15:47:57.569Z,1.90
2023-05-02T15:50:25.594Z,1.23
2023-05-02T15:52:52.651Z,1.40
2023-05-02T15:55:19.793Z,1.40
2023-05-02T15:57:47.129Z,1.27
2023-05-02T16:00:16.990Z,1.50
2023-05-02T16:02:44.236Z,1.40
2023-05-02T16:05:11.403Z,1.58
2023-05-02T16:07:38.747Z,1.63
2023-05-02T16:10:06.383Z,1.60
2023-05-02T16:12:34.017Z,1.60
2023-05-02T16:15:03.162Z,1.95
2023-05-02T16:17:31.101Z,2.00
2023-05-02T16:19:58.379Z,1.50
2023-05-02T16:22:28.237Z,1.50
2023-05-02T16:24:56.231Z,1.50
2023-05-02T16:27:24.646Z,1.50
2023-05-02T16:29:52.024Z,1.73
2023-05-02T16:32:19.150Z,1.70
2023-05-02T16:34:46.324Z,1.88
2023-05-02T16:37:13.613Z,1.95
2023-05-02T16:39:40.701Z,2.20
2023-05-02T16:42:07.913Z,2.25
2023-05-02T16:44:35.066Z,1.90
2023-05-02T16:47:02.363Z,2.20
2023-05-02T16:49:29.626Z,2.10
2023-05-02T16:51:56.791Z,2.00
2023-05-02T16:54:23.873Z,1.90
2023-05-02T16:56:51.297Z,2.53
2023-05-02T16:59:18.437Z,2.40
2023-05-02T17:01:45.983Z,2.22
2023-05-02T17:04:13.146Z,2.30
2023-05-02T17:06:40.425Z,2.42
2023-05-02T17:09:07.644Z,2.40
2023-05-02T17:11:34.977Z,2.20
2023-05-02T17:14:02.077Z,2.40
2023-05-02T17:16:29.284Z,2.13
2023-05-02T17:18:56.588Z,2.35
2023-05-02T17:21:23.742Z,2.55
2023-05-02T17:23:50.850Z,2.45
2023-05-02T17:26:18.017Z,2.60
2023-05-02T17:28:45.891Z,3.05
2023-05-02T17:31:13.145Z,2.83
2023-05-02T17:33:40.437Z,2.70
2023-05-02T17:36:07.673Z,3.22
2023-05-02T17:38:34.779Z,2.00
2023-05-02T17:41:01.912Z,2.45
2023-05-02T17:43:28.974Z,2.75
2023-05-02T17:45:56.100Z,2.40
2023-05-02T17:48:24.034Z,2.22
2023-05-02T17:50:51.244Z,2.22
2023-05-02T17:53:18.395Z,1.90
2023-05-02T17:55:45.853Z,2.58
2023-05-02T17:58:13.212Z,2.33
2023-05-02T18:00:40.326Z,2.75
2023-05-02T18:03:08.307Z,2.58
2023-05-02T18:05:39.667Z,2.65
2023-05-02T18:08:10.032Z,2.22
2023-05-02T18:10:41.601Z,2.47
2023-05-02T18:13:09.019Z,2.60
2023-05-02T18:15:36.158Z,1.92
2023-05-02T18:18:03.382Z,2.67
2023-05-02T18:20:30.714Z,2.08
2023-05-02T18:22:59.209Z,2.28
2023-05-02T18:25:26.316Z,2.08
2023-05-02T18:27:53.409Z,2.13
2023-05-02T18:30:20.573Z,2.00
2023-05-02T18:32:47.713Z,2.90
2023-05-02T18:35:14.841Z,2.20
2023-05-02T18:37:42.012Z,2.30
2023-05-02T18:40:09.317Z,1.90
2023-05-02T18:42:36.486Z,2.40
2023-05-02T18:45:05.319Z,3.20
2023-05-02T18:47:33.630Z,3.00
2023-05-02T18:50:01.102Z,2.38
2023-05-02T18:52:30.888Z,2.72
2023-05-02T18:54:58.215Z,2.40
2023-05-02T18:57:25.634Z,2.08
2023-05-02T18:59:52.775Z,2.50
2023-05-02T19:02:19.909Z,2.25
2023-05-02T19:04:47.026Z,2.20
2023-05-02T19:07:14.584Z,2.65
2023-05-02T19:09:41.901Z,2.83
2023-05-02T19:12:09.032Z,2.42
2023-05-02T19:14:36.432Z,4.03
2023-05-02T19:17:05.592Z,3.28
2023-05-02T19:19:33.161Z,3.22
2023-05-02T19:22:00.339Z,3.80
2023-05-02T19:24:27.498Z,3.47
2023-05-02T19:26:55.107Z,3.50
2023-05-02T19:29:22.283Z,3.63
2023-05-02T19:31:49.433Z,3.70
2023-05-02T19:34:16.567Z,3.92
2023-05-02T19:36:43.702Z,3.65
2023-05-02T19:39:13.072Z,3.90
2023-05-02T19:41:42.434Z,3.70
2023-05-02T19:44:09.589Z,3.58
2023-05-02T19:46:36.813Z,4.10
2023-05-02T19:49:03.964Z,4.55
2023-05-02T19:51:33.815Z,4.00
2023-05-02T19:54:00.999Z,3.95
2023-05-02T19:56:28.750Z,4.20
2023-05-02T19:58:58.643Z,3.50
2023-05-02T20:01:28.825Z,3.63
2023-05-02T20:03:56.495Z,3.92
2023-05-02T20:06:23.925Z,3.80
2023-05-02T20:08:52.439Z,3.55
2023-05-02T20:11:20.240Z,4.05
2023-05-02T20:13:47.421Z,4.10
2023-05-02T20:16:15.092Z,4.18
2023-05-02T20:18:42.227Z,3.40
2023-05-02T20:21:09.611Z,3.90
2023-05-02T20:23:36.676Z,3.58
2023-05-02T20:26:03.770Z,3.10
2023-05-02T20:28:30.956Z,3.50
2023-05-02T20:30:58.062Z,2.78
2023-05-02T20:33:27.516Z,3.22
2023-05-02T20:35:57.559Z,2.90
2023-05-02T20:38:24.711Z,3.28
2023-05-02T20:40:51.816Z,3.30
2023-05-02T20:43:18.955Z,3.33
2023-05-02T20:45:47.078Z,3.08
2023-05-02T20:48:15.959Z,3.40
2023-05-02T20:50:43.176Z,3.33
2023-05-02T20:53:10.335Z,3.15
2023-05-02T20:55:37.500Z,3.00
2023-05-02T20:58:04.637Z,3.33
2023-05-02T21:00:31.709Z,3.15
2023-05-02T21:02:58.844Z,3.58
2023-05-02T21:05:26.990Z,4.00
2023-05-02T21:07:54.068Z,4.00
2023-05-02T21:10:22.452Z,4.75
2023-05-02T21:12:49.581Z,3.90
2023-05-02T21:15:16.674Z,4.90
2023-05-02T21:17:43.776Z,3.85
2023-05-02T21:20:11.233Z,3.17
2023-05-02T21:22:38.311Z,4.18
2023-05-02T21:25:05.696Z,3.47
2023-05-02T21:27:32.887Z,3.30
2023-05-02T21:30:00.174Z,3.42
2023-05-02T21:32:27.784Z,3.53
2023-05-02T21:34:55.138Z,4.07
2023-05-02T21:37:22.852Z,3.15
2023-05-02T21:39:51.337Z,3.65
2023-05-02T21:42:18.503Z,3.60
2023-05-02T21:44:45.591Z,3.53
2023-05-02T21:47:12.749Z,3.55
2023-05-02T21:49:40.137Z,3.20
2023-05-02T21:52:07.328Z,3.40
2023-05-02T21:54:34.397Z,3.20
2023-05-02T21:57:02.804Z,3.45
2023-05-02T21:59:29.871Z,3.10
2023-05-02T22:01:57.486Z,3.50
2023-05-02T22:04:24.912Z,3.58
2023-05-02T22:06:52.682Z,3.10
2023-05-02T22:09:20.835Z,3.05
2023-05-02T22:11:47.940Z,2.88
2023-05-02T22:14:15.043Z,2.80
2023-05-02T22:16:42.182Z,2.60
2023-05-02T22:19:11.276Z,2.92
2023-05-02T22:21:38.372Z,3.15
2023-05-02T22:24:05.823Z,3.08
2023-05-02T22:26:33.199Z,3.20
2023-05-02T22:29:00.283Z,3.00
2023-05-02T22:31:27.543Z,2.95
2023-05-02T22:33:54.738Z,3.20
2023-05-02T22:36:22.984Z,3.70
2023-05-02T22:38:50.360Z,3.08
2023-05-02T22:41:17.519Z,3.67
2023-05-02T22:43:44.621Z,3.42
2023-05-02T22:46:11.696Z,3.17
2023-05-02T22:48:38.929Z,3.10
2023-05-02T22:51:06.246Z,3.30
2023-05-02T22:53:33.338Z,3.33
2023-05-02T22:56:00.614Z,3.67
2023-05-02T22:58:27.682Z,2.92
2023-05-02T23:00:54.840Z,3.70
2023-05-02T23:03:22.370Z,3.10
2023-05-02T23:05:49.552Z,2.97
2023-05-02T23:08:16.726Z,3.28
2023-05-02T23:10:43.932Z,2.92
2023-05-02T23:13:11.103Z,3.03
2023-05-02T23:15:38.894Z,2.70
2023-05-02T23:18:06.458Z,2.88
2023-05-02T23:20:33.993Z,3.17
2023-05-02T23:23:01.086Z,2.42
2023-05-02T23:25:28.345Z,2.60
2023-05-02T23:27:55.507Z,2.92
2023-05-02T23:30:23.050Z,2.13
2023-05-02T23:32:50.377Z,2.30
2023-05-02T23:35:18.027Z,2.40
2023-05-02T23:37:45.190Z,2.53
2023-05-02T23:40:12.507Z,2.25
2023-05-02T23:42:40.420Z,2.03
2023-05-02T23:45:08.532Z,2.40
2023-05-02T23:47:36.153Z,2.47
2023-05-02T23:50:03.501Z,2.00
2023-05-02T23:52:30.850Z,2.15
2023-05-02T23:54:57.974Z,2.38
2023-05-02T23:57:25.035Z,1.98
2023-05-02T23:59:52.279Z,2.10
